createdAt,value
2023-04-11T00:01:22.870Z,21.30
2023-04-11T00:03:53.174Z,20.70
2023-04-11T00:06:21.619Z,21.00
2023-04-11T00:08:49.893Z,21.70
2023-04-11T00:11:19.213Z,22.30
2023-04-11T00:13:48.558Z,22.50
2023-04-11T00:16:20.737Z,24.40
2023-04-11T00:18:49.232Z,24.80
2023-04-11T00:21:17.360Z,24.10
2023-04-11T00:23:45.927Z,24.20
2023-04-11T00:26:14.314Z,30.00
2023-04-11T00:28:42.816Z,29.30
2023-04-11T00:31:12.544Z,31.60
2023-04-11T00:33:41.215Z,30.70
2023-04-11T00:36:10.043Z,31.70
2023-04-11T00:38:40.230Z,32.40
2023-04-11T00:41:08.720Z,28.90
2023-04-11T00:43:49.744Z,30.20
2023-04-11T00:46:18.715Z,29.30
2023-04-11T00:48:47.972Z,32.00
2023-04-11T00:51:26.034Z,31.30
2023-04-11T00:53:56.489Z,30.20
2023-04-11T00:56:24.853Z,30.10
2023-04-11T00:58:53.831Z,29.40
2023-04-11T01:01:25.660Z,28.90
2023-04-11T01:03:54.448Z,28.80
2023-04-11T01:06:23.541Z,29.50
2023-04-11T01:08:54.785Z,27.80
2023-04-11T01:11:23.525Z,26.10
2023-04-11T01:13:52.020Z,28.30
2023-04-11T01:16:21.889Z,27.40
2023-04-11T01:18:50.738Z,29.40
2023-04-11T01:21:19.700Z,34.90
2023-04-11T01:23:48.928Z,32.80
2023-04-11T01:26:17.394Z,27.80
2023-04-11T01:28:46.381Z,28.80
2023-04-11T01:31:15.619Z,31.20
2023-04-11T01:33:45.596Z,26.00
2023-04-11T01:36:14.217Z,28.90
2023-04-11T01:38:46.760Z,26.10
2023-04-11T01:41:16.351Z,24.50
2023-04-11T01:43:47.726Z,25.70
2023-04-11T01:46:16.620Z,22.20
2023-04-11T01:48:45.941Z,22.20
2023-04-11T01:51:15.083Z,23.70
2023-04-11T01:53:47.786Z,26.10
2023-04-11T01:56:16.713Z,21.80
2023-04-11T01:58:47.971Z,22.80
2023-04-11T02:01:19.635Z,23.30
2023-04-11T02:03:48.335Z,22.00
2023-04-11T02:06:17.177Z,22.50
2023-04-11T02:08:54.111Z,20.70
2023-04-11T02:11:23.400Z,20.20
2023-04-11T02:13:52.637Z,23.30
2023-04-11T02:16:26.035Z,21.20
2023-04-11T02:18:55.057Z,22.40
2023-04-11T02:28:59.730Z,24.10
2023-04-11T02:31:28.642Z,24.60
2023-04-11T02:37:20.332Z,25.90
2023-04-11T02:39:48.985Z,25.70
2023-04-11T02:42:17.196Z,23.40
2023-04-11T02:44:55.781Z,22.20
2023-04-11T02:47:27.352Z,22.90
2023-04-11T02:49:58.081Z,25.20
2023-04-11T02:52:33.546Z,24.00
2023-04-11T02:55:01.942Z,24.40
2023-04-11T02:57:32.544Z,27.00
2023-04-11T03:00:00.817Z,25.30
2023-04-11T03:02:38.403Z,26.10
2023-04-11T03:05:08.717Z,25.10
2023-04-11T03:07:38.759Z,24.20
2023-04-11T03:10:10.842Z,32.70
2023-04-11T03:12:40.508Z,31.70
2023-04-11T03:15:09.910Z,19.90
2023-04-11T03:17:42.371Z,40.70
2023-04-11T03:20:13.937Z,32.20
2023-04-11T03:22:46.797Z,30.90
2023-04-11T03:25:15.580Z,31.60
2023-04-11T03:27:44.282Z,25.70
2023-04-11T03:32:47.718Z,29.30
2023-04-11T03:35:17.163Z,29.30
2023-04-11T03:37:47.964Z,33.70
2023-04-11T03:40:18.881Z,22.60
2023-04-11T03:42:51.271Z,23.60
2023-04-11T03:45:22.646Z,21.20
2023-04-11T03:47:53.433Z,22.30
2023-04-11T03:50:23.011Z,26.50
2023-04-11T03:52:52.227Z,21.20
2023-04-11T03:55:21.158Z,23.70
2023-04-11T03:57:49.679Z,22.60
2023-04-11T04:00:20.061Z,19.70
2023-04-11T04:03:07.322Z,26.50
2023-04-11T04:05:37.078Z,23.70
2023-04-11T04:08:06.569Z,25.10
2023-04-11T04:10:43.904Z,23.80
2023-04-11T04:13:12.193Z,23.70
2023-04-11T04:15:45.026Z,23.20
2023-04-11T04:18:15.463Z,24.50
2023-04-11T04:20:47.570Z,23.20
2023-04-11T04:23:20.040Z,23.60
2023-04-11T04:26:16.321Z,22.60
2023-04-11T04:28:48.382Z,22.80
2023-04-11T04:31:25.853Z,23.50
2023-04-11T04:34:08.704Z,25.70
2023-04-11T04:36:48.095Z,24.70
2023-04-11T04:39:21.365Z,21.90
2023-04-11T04:41:58.366Z,22.20
2023-04-11T04:44:29.686Z,22.80
2023-04-11T04:47:02.899Z,18.20
2023-04-11T04:49:31.378Z,17.90
2023-04-11T04:51:59.705Z,17.60
2023-04-11T04:54:28.911Z,16.90
2023-04-11T04:59:15.533Z,19.50
2023-04-11T05:01:46.588Z,17.90
2023-04-11T05:04:15.515Z,20.60
2023-04-11T05:06:53.388Z,18.20
2023-04-11T05:09:28.255Z,16.40
2023-04-11T05:12:06.716Z,18.40
2023-04-11T05:14:36.717Z,19.80
2023-04-11T05:17:11.243Z,18.90
2023-04-11T05:19:41.053Z,17.60
2023-04-11T05:22:09.552Z,18.20
2023-04-11T05:24:40.827Z,18.50
2023-04-11T05:27:40.139Z,18.20
2023-04-11T05:30:30.744Z,17.70
2023-04-11T05:33:02.202Z,18.60
2023-04-11T05:35:31.284Z,19.90
2023-04-11T05:38:03.096Z,18.50
2023-04-11T05:40:31.509Z,19.00
2023-04-11T05:42:59.907Z,19.70
2023-04-11T05:45:29.515Z,19.00
2023-04-11T05:47:59.299Z,20.30
2023-04-11T05:50:29.334Z,20.60
2023-04-11T05:52:59.320Z,21.10
2023-04-11T05:55:28.396Z,20.10
2023-04-11T05:58:01.580Z,19.70
2023-04-11T06:00:31.899Z,20.60
2023-04-11T06:03:10.245Z,20.30
2023-04-11T06:05:40.670Z,22.50
2023-04-11T06:08:10.366Z,20.60
2023-04-11T06:10:38.784Z,22.20
2023-04-11T06:13:09.046Z,20.70
2023-04-11T06:15:38.108Z,18.20
2023-04-11T06:18:06.980Z,18.50
2023-04-11T06:20:36.733Z,19.10
2023-04-11T06:23:07.497Z,19.10
2023-04-11T06:25:35.810Z,19.00
2023-04-11T06:28:04.420Z,18.90
2023-04-11T06:30:33.236Z,17.30
2023-04-11T06:33:01.765Z,15.10
2023-04-11T06:35:31.398Z,14.00
2023-04-11T06:37:59.849Z,13.60
2023-04-11T06:40:29.934Z,14.40
2023-04-11T06:43:01.164Z,12.90
2023-04-11T06:45:29.695Z,12.50
2023-04-11T06:47:57.964Z,12.20
2023-04-11T06:50:26.362Z,12.00
2023-04-11T06:52:56.012Z,12.00
2023-04-11T06:55:24.513Z,11.60
2023-04-11T06:57:52.788Z,14.00
2023-04-11T07:00:21.432Z,12.80
2023-04-11T07:02:50.737Z,10.70
2023-04-11T07:05:19.357Z,10.70
2023-04-11T07:07:48.102Z,11.20
2023-04-11T07:10:16.359Z,10.30
2023-04-11T07:12:44.977Z,11.10
2023-04-11T07:15:13.302Z,10.80
2023-04-11T07:17:45.131Z,11.60
2023-04-11T07:20:13.735Z,13.00
2023-04-11T07:22:48.568Z,13.60
2023-04-11T07:25:23.060Z,14.70
2023-04-11T07:27:51.670Z,14.50
2023-04-11T07:30:20.740Z,17.00
2023-04-11T07:32:49.963Z,16.90
2023-04-11T07:35:19.953Z,18.40
2023-04-11T07:37:49.399Z,16.30
2023-04-11T07:40:17.956Z,16.70
2023-04-11T07:42:46.749Z,16.80
2023-04-11T07:45:14.860Z,16.50
2023-04-11T07:47:43.747Z,16.10
2023-04-11T07:50:12.314Z,15.40
2023-04-11T07:52:42.511Z,16.10
2023-04-11T07:55:12.293Z,16.60
2023-04-11T07:57:40.523Z,16.30
2023-04-11T08:00:11.599Z,16.10
2023-04-11T08:02:40.689Z,16.50
2023-04-11T08:05:10.122Z,15.40
2023-04-11T08:07:38.388Z,14.20
2023-04-11T08:10:07.798Z,14.60
2023-04-11T08:12:36.374Z,15.20
2023-04-11T08:15:07.122Z,12.80
2023-04-11T08:17:39.062Z,14.40
2023-04-11T08:20:09.445Z,14.10
2023-04-11T08:22:46.911Z,14.70
2023-04-11T08:25:17.016Z,16.30
2023-04-11T08:27:45.704Z,16.80
2023-04-11T08:30:16.931Z,16.20
2023-04-11T08:32:46.460Z,18.80
2023-04-11T08:35:14.833Z,17.20
2023-04-11T08:37:44.642Z,17.60
2023-04-11T08:40:12.796Z,16.60
2023-04-11T08:42:41.363Z,18.00
2023-04-11T08:45:10.483Z,19.10
2023-04-11T08:47:38.584Z,19.10
2023-04-11T08:50:07.311Z,18.10
2023-04-11T08:52:35.715Z,16.50
2023-04-11T08:55:03.988Z,17.00
2023-04-11T08:57:32.797Z,18.00
2023-04-11T09:00:23.584Z,17.10
2023-04-11T09:02:56.419Z,16.10
2023-04-11T09:05:36.542Z,16.50
2023-04-11T09:08:06.681Z,16.30
2023-04-11T09:10:35.493Z,16.70
2023-04-11T09:13:20.615Z,16.80
2023-04-11T09:16:06.437Z,17.00
2023-04-11T09:18:35.566Z,17.00
2023-04-11T09:23:35.686Z,16.90
2023-04-11T09:26:06.206Z,16.80
2023-04-11T09:28:44.724Z,17.70
2023-04-11T09:31:13.433Z,16.50
2023-04-11T09:39:18.705Z,18.30
2023-04-11T09:41:46.963Z,15.30
2023-04-11T09:44:16.019Z,16.30
2023-04-11T09:46:57.365Z,16.20
2023-04-11T09:49:25.793Z,15.70
2023-04-11T09:51:53.709Z,16.20
2023-04-11T09:54:24.813Z,16.60
2023-04-11T09:56:53.476Z,14.70
2023-04-11T09:59:21.770Z,16.40
2023-04-11T10:01:50.710Z,15.70
2023-04-11T10:04:20.594Z,13.60
2023-04-11T10:07:11.103Z,13.90
2023-04-11T10:09:41.111Z,15.40
2023-04-11T10:12:09.925Z,15.50
2023-04-11T10:14:38.026Z,14.90
2023-04-11T10:24:40.618Z,14.00
2023-04-11T10:27:08.852Z,13.40
2023-04-11T10:29:48.413Z,13.40
2023-04-11T10:32:24.471Z,12.70
2023-04-11T10:34:53.259Z,13.40
2023-04-11T10:37:33.327Z,12.80
2023-04-11T10:40:11.169Z,12.90
2023-04-11T10:42:44.621Z,13.50
2023-04-11T10:45:29.367Z,12.80
2023-04-11T10:47:58.808Z,12.80
2023-04-11T10:50:27.446Z,10.90
2023-04-11T10:52:58.208Z,8.90
2023-04-11T10:55:27.244Z,8.50
2023-04-11T10:58:08.706Z,9.40
2023-04-11T11:00:53.650Z,9.60
2023-04-11T11:03:30.702Z,9.40
2023-04-11T11:06:00.483Z,9.50
2023-04-11T11:08:38.107Z,7.90
2023-04-11T11:11:07.012Z,7.60
2023-04-11T11:13:42.342Z,6.90
2023-04-11T11:16:15.150Z,7.50
2023-04-11T11:18:47.834Z,7.60
2023-04-11T11:21:24.778Z,6.90
2023-04-11T11:24:00.590Z,6.90
2023-04-11T11:26:42.906Z,6.90
2023-04-11T11:29:11.413Z,7.10
2023-04-11T11:31:45.644Z,6.70
2023-04-11T11:34:23.522Z,7.20
2023-04-11T11:36:53.706Z,7.30
2023-04-11T11:39:23.263Z,6.70
2023-04-11T11:44:29.246Z,6.50
2023-04-11T11:47:07.541Z,7.30
2023-04-11T11:49:48.420Z,7.30
2023-04-11T11:52:36.601Z,7.60
2023-04-11T11:55:29.232Z,7.20
2023-04-11T11:58:02.149Z,7.60
2023-04-11T12:00:35.041Z,6.70
2023-04-11T12:03:04.710Z,6.90
2023-04-11T12:05:33.866Z,6.50
2023-04-11T12:08:06.428Z,6.90
2023-04-11T12:10:41.641Z,7.20
2023-04-11T12:13:13.155Z,6.40
2023-04-11T12:15:43.703Z,6.70
2023-04-11T12:18:12.125Z,6.30
2023-04-11T12:20:41.702Z,6.30
2023-04-11T12:23:10.107Z,5.90
2023-04-11T12:25:41.283Z,5.90
2023-04-11T12:28:10.660Z,5.70
2023-04-11T12:30:38.939Z,6.40
2023-04-11T12:33:07.575Z,6.30
2023-04-11T12:35:36.290Z,5.80
2023-04-11T12:38:07.805Z,5.90
2023-04-11T12:43:05.869Z,5.90
2023-04-11T12:45:34.774Z,5.90
2023-04-11T12:48:03.339Z,5.40
2023-04-11T12:50:31.648Z,5.40
2023-04-11T12:52:59.909Z,5.20
2023-04-11T12:55:28.733Z,5.40
2023-04-11T12:57:56.820Z,5.40
2023-04-11T13:00:25.432Z,5.20
2023-04-11T13:03:13.616Z,5.40
2023-04-11T13:05:42.582Z,6.20
2023-04-11T13:08:10.712Z,6.40
2023-04-11T13:10:38.988Z,6.00
2023-04-11T13:13:17.537Z,6.20
2023-04-11T13:15:46.875Z,6.10
2023-04-11T13:18:14.940Z,6.80
2023-04-11T13:20:46.036Z,6.30
2023-04-11T13:23:17.055Z,6.80
2023-04-11T13:25:48.699Z,5.40
2023-04-11T13:28:16.924Z,4.60
2023-04-11T13:30:46.402Z,3.40
2023-04-11T17:17:18.209Z,12.70
2023-04-11T17:19:46.861Z,10.10
2023-04-11T17:22:16.362Z,6.60
2023-04-11T17:24:44.444Z,7.50
2023-04-11T17:27:16.317Z,6.40
2023-04-11T17:29:45.326Z,6.30
2023-04-11T17:32:13.536Z,7.00
2023-04-11T17:34:43.552Z,7.50
2023-04-11T17:37:11.816Z,8.40
2023-04-11T17:39:42.079Z,7.90
2023-04-11T17:42:14.763Z,8.10
2023-04-11T17:44:43.597Z,8.40
2023-04-11T17:47:11.642Z,6.90
2023-04-11T17:49:40.072Z,7.50
2023-04-11T17:52:09.012Z,7.00
2023-04-11T17:54:37.770Z,7.80
2023-04-11T17:57:07.717Z,7.10
2023-04-11T17:59:40.676Z,7.30
2023-04-11T18:02:09.075Z,7.90
2023-04-11T18:04:37.665Z,15.40
2023-04-11T18:07:08.106Z,13.60
2023-04-11T18:09:37.912Z,13.10
2023-04-11T18:12:07.201Z,10.00
2023-04-11T18:14:43.023Z,7.90
2023-04-11T18:17:12.029Z,7.10
2023-04-11T18:19:40.809Z,7.30
2023-04-11T18:22:11.025Z,7.20
2023-04-11T18:24:41.355Z,7.50
2023-04-11T18:27:10.615Z,6.80
2023-04-11T18:29:39.550Z,7.00
2023-04-11T18:32:07.940Z,7.50
2023-04-11T18:34:36.377Z,6.70
2023-04-11T18:37:04.805Z,6.90
2023-04-11T18:39:33.337Z,7.20
2023-04-11T18:42:03.810Z,7.10
2023-04-11T18:44:32.386Z,6.80
2023-04-11T18:49:31.666Z,6.50
2023-04-11T18:52:00.740Z,5.60
2023-04-11T18:54:32.911Z,5.80
2023-04-11T18:57:02.430Z,5.40
2023-04-11T18:59:33.411Z,5.10
2023-04-11T19:02:06.645Z,4.80
2023-04-11T19:04:36.538Z,4.20
2023-04-11T19:07:05.081Z,4.60
2023-04-11T19:09:33.781Z,4.20
2023-04-11T19:12:02.483Z,4.00
2023-04-11T19:14:30.819Z,4.10
2023-04-11T19:16:59.138Z,4.30
2023-04-11T19:19:28.297Z,4.30
2023-04-11T19:21:56.689Z,4.00
2023-04-11T19:24:24.978Z,4.20
2023-04-11T19:26:53.487Z,4.50
2023-04-11T19:29:21.691Z,4.00
2023-04-11T19:31:50.282Z,4.10
2023-04-11T19:34:18.660Z,4.10
2023-04-11T19:36:47.402Z,3.70
2023-04-11T19:39:16.477Z,3.90
2023-04-11T19:41:46.213Z,3.80
2023-04-11T19:44:14.540Z,4.10
2023-04-11T19:46:42.680Z,3.90
2023-04-11T19:49:11.080Z,3.70
2023-04-11T19:51:40.178Z,3.90
2023-04-11T19:54:08.268Z,4.00
2023-04-11T19:56:39.234Z,3.90
2023-04-11T19:59:07.321Z,4.20
2023-04-11T20:01:36.453Z,3.70
2023-04-11T20:04:06.324Z,4.20
2023-04-11T20:06:36.104Z,4.00
2023-04-11T20:09:04.492Z,4.00
2023-04-11T20:11:33.197Z,3.80
2023-04-11T20:14:01.400Z,4.40
2023-04-11T20:16:30.802Z,4.00
2023-04-11T20:19:01.588Z,4.20
2023-04-11T20:21:29.846Z,3.60
2023-04-11T20:23:58.144Z,3.60
2023-04-11T20:26:27.253Z,4.70
2023-04-11T20:28:58.238Z,4.30
2023-04-11T20:31:26.466Z,4.00
2023-04-11T20:33:55.009Z,4.50
2023-04-11T20:36:23.579Z,4.50
2023-04-11T20:38:52.304Z,4.40
2023-04-11T20:41:20.382Z,4.90
2023-04-11T20:43:48.598Z,4.80
2023-04-11T20:46:17.979Z,4.50
2023-04-11T20:48:47.222Z,4.90
2023-04-11T20:51:16.312Z,4.80
2023-04-11T20:53:45.743Z,4.90
2023-04-11T20:56:14.956Z,5.90
2023-04-11T20:58:43.719Z,5.90
2023-04-11T21:01:13.643Z,5.30
2023-04-11T21:03:44.259Z,4.90
2023-04-11T21:06:12.420Z,5.20
2023-04-11T21:08:41.011Z,4.90
2023-04-11T21:11:09.330Z,5.20
2023-04-11T21:13:37.500Z,5.80
2023-04-11T21:16:06.332Z,7.00
2023-04-11T21:18:36.114Z,7.70
2023-04-11T21:21:08.512Z,6.80
2023-04-11T21:23:36.580Z,6.20
2023-04-11T21:26:05.496Z,7.50
2023-04-11T21:28:35.737Z,7.10
2023-04-11T21:31:23.705Z,5.80
2023-04-11T21:33:53.259Z,5.30
2023-04-11T21:36:21.845Z,6.00
2023-04-11T21:38:49.913Z,6.30
2023-04-11T21:41:18.200Z,6.30
2023-04-11T21:43:46.600Z,6.50
2023-04-11T21:46:19.704Z,6.70
2023-04-11T21:48:49.540Z,6.30
2023-04-11T21:51:18.346Z,5.80
2023-04-11T21:53:46.820Z,6.80
2023-04-11T21:56:14.967Z,6.80
2023-04-11T21:58:46.467Z,6.70
2023-04-11T22:01:16.225Z,6.60
2023-04-11T22:03:45.038Z,6.20
2023-04-11T22:06:13.306Z,6.10
2023-04-11T22:08:50.804Z,6.40
2023-04-11T22:11:18.902Z,6.80
2023-04-11T22:13:49.975Z,6.80
2023-04-11T22:16:18.803Z,6.50
2023-04-11T22:18:47.005Z,7.30
2023-04-11T22:21:20.989Z,8.00
2023-04-11T22:23:54.472Z,8.20
2023-04-11T22:26:26.311Z,8.60
2023-04-11T22:29:03.194Z,8.40
2023-04-11T22:34:02.839Z,7.90
2023-04-11T22:36:35.769Z,8.40
2023-04-11T22:39:07.544Z,8.40
2023-04-11T22:41:40.852Z,8.00
2023-04-11T22:44:09.350Z,9.20
2023-04-11T22:46:38.840Z,8.70
2023-04-11T22:49:09.881Z,7.80
2023-04-11T22:51:38.136Z,8.30
2023-04-11T22:54:13.399Z,7.40
2023-04-11T22:56:43.204Z,7.70
2023-04-11T22:59:11.277Z,7.10
2023-04-11T23:01:39.572Z,7.90
2023-04-11T23:04:08.516Z,7.20
2023-04-11T23:06:37.553Z,7.20
2023-04-11T23:09:07.097Z,7.10
2023-04-11T23:11:35.595Z,7.30
2023-04-11T23:14:05.151Z,6.90
2023-04-11T23:16:33.819Z,7.40
2023-04-11T23:19:01.858Z,7.50
2023-04-11T23:21:33.241Z,8.00
2023-04-11T23:24:02.584Z,9.30
2023-04-11T23:26:31.306Z,9.00
2023-04-11T23:29:01.410Z,9.00
2023-04-11T23:31:31.623Z,8.30
2023-04-11T23:34:00.581Z,8.30
2023-04-11T23:36:29.524Z,7.80
2023-04-11T23:38:58.428Z,8.30
2023-04-11T23:41:35.736Z,9.00
2023-04-11T23:44:04.889Z,8.10
2023-04-11T23:46:33.511Z,8.10
2023-04-11T23:49:05.136Z,7.10
2023-04-11T23:51:33.555Z,7.90
2023-04-11T23:54:01.898Z,7.40
2023-04-11T23:56:30.266Z,7.80
2023-04-11T23:58:59.081Z,7.90
